createdAt,value
2018-07-19T00:01:18.631Z,100380.00
2018-07-19T00:06:21.608Z,100377.00
2018-07-19T00:11:24.592Z,100380.00
2018-07-19T00:16:27.584Z,100372.00
2018-07-19T00:21:30.563Z,100380.00
2018-07-19T00:26:33.547Z,100370.00
2018-07-19T00:31:36.511Z,100365.00
2018-07-19T00:36:39.491Z,100367.00
2018-07-19T00:41:44.807Z,100370.00
2018-07-19T00:46:47.767Z,100371.00
2018-07-19T00:51:50.794Z,100377.00
2018-07-19T00:56:53.781Z,100371.00
2018-07-19T01:01:56.760Z,100372.00
2018-07-19T01:06:59.751Z,100371.00
2018-07-19T01:12:02.844Z,100376.00
2018-07-19T01:17:06.055Z,100384.00
2018-07-19T01:22:09.100Z,100387.00
2018-07-19T01:27:12.088Z,100385.00
2018-07-19T01:32:15.055Z,100387.00
2018-07-19T01:37:18.034Z,100391.00
2018-07-19T01:42:35.374Z,100387.00
2018-07-19T01:47:38.603Z,100384.00
2018-07-19T01:52:41.584Z,100385.00
2018-07-19T01:57:44.591Z,100380.00
2018-07-19T02:02:47.905Z,100378.00
2018-07-19T02:07:50.940Z,100372.00
2018-07-19T02:12:53.991Z,100378.00
2018-07-19T02:17:56.967Z,100385.00
2018-07-19T02:22:59.954Z,100387.00
2018-07-19T02:28:02.912Z,100380.00
2018-07-19T02:33:05.909Z,100381.00
2018-07-19T02:38:08.863Z,100389.00
2018-07-19T02:43:11.832Z,100390.00
2018-07-19T02:48:14.800Z,100389.00
2018-07-19T02:53:17.808Z,100385.00
2018-07-19T02:58:20.844Z,100384.00
2018-07-19T03:03:23.874Z,100396.00
2018-07-19T03:08:26.887Z,100388.00
2018-07-19T03:13:29.900Z,100384.00
2018-07-19T03:18:33.075Z,100385.00
2018-07-19T03:23:36.061Z,100387.00
2018-07-19T03:28:39.083Z,100396.00
2018-07-19T03:33:42.056Z,100392.00
2018-07-19T03:38:45.099Z,100392.00
2018-07-19T03:43:48.103Z,100398.00
2018-07-19T03:48:51.063Z,100393.00
2018-07-19T03:53:54.091Z,100383.00
2018-07-19T03:58:57.085Z,100397.00
2018-07-19T04:04:00.056Z,100399.00
2018-07-19T04:09:04.919Z,100403.00
2018-07-19T04:14:07.925Z,100397.00
2018-07-19T04:19:10.875Z,100402.00
2018-07-19T04:24:13.856Z,100395.00
2018-07-19T04:29:16.844Z,100392.00
2018-07-19T04:34:19.929Z,100397.00
2018-07-19T04:39:22.876Z,100405.00
2018-07-19T04:44:25.876Z,100411.00
2018-07-19T04:49:30.244Z,100420.00
2018-07-19T04:54:33.307Z,100428.00
2018-07-19T04:59:36.379Z,100438.00
2018-07-19T05:04:39.423Z,100442.00
2018-07-19T05:09:42.712Z,100441.00
2018-07-19T05:14:45.864Z,100443.00
2018-07-19T05:19:48.916Z,100459.00
2018-07-19T05:24:51.917Z,100456.00
2018-07-19T05:29:54.954Z,100467.00
2018-07-19T05:34:58.000Z,100458.00
2018-07-19T05:40:01.148Z,100459.00
2018-07-19T05:45:04.580Z,100456.00
2018-07-19T05:50:07.616Z,100447.00
2018-07-19T05:55:10.648Z,100444.00
2018-07-19T06:00:13.688Z,100453.00
2018-07-19T06:05:16.698Z,100467.00
2018-07-19T06:10:19.763Z,100466.00
2018-07-19T06:15:22.795Z,100478.00
2018-07-19T06:20:25.810Z,100475.00
2018-07-19T06:25:29.075Z,100476.00
2018-07-19T06:30:32.116Z,100482.00
2018-07-19T06:35:35.143Z,100490.00
2018-07-19T06:40:38.192Z,100476.00
2018-07-19T06:45:41.493Z,100482.00
2018-07-19T06:50:44.718Z,100483.00
2018-07-19T06:55:47.756Z,100495.00
2018-07-19T07:00:50.843Z,100499.00
2018-07-19T07:05:53.963Z,100521.00
2018-07-19T07:10:56.999Z,100511.00
2018-07-19T07:16:00.029Z,100505.00
2018-07-19T07:21:03.137Z,100511.00
2018-07-19T07:26:06.193Z,100514.00
2018-07-19T07:31:09.848Z,100521.00
2018-07-19T07:36:12.916Z,100520.00
2018-07-19T07:41:15.989Z,100518.00
2018-07-19T07:46:19.019Z,100529.00
2018-07-19T07:51:22.055Z,100536.00
2018-07-19T07:56:25.064Z,100541.00
2018-07-19T08:01:28.191Z,100521.00
2018-07-19T08:06:31.203Z,100524.00
2018-07-19T08:11:34.342Z,100527.00
2018-07-19T08:16:37.433Z,100523.00
2018-07-19T08:21:40.462Z,100516.00
2018-07-19T08:26:43.629Z,100511.00
2018-07-19T08:31:46.680Z,100514.00
2018-07-19T08:36:49.772Z,100521.00
2018-07-19T08:41:52.862Z,100523.00
2018-07-19T08:46:55.856Z,100515.00
2018-07-19T08:51:58.940Z,100519.00
2018-07-19T08:57:02.024Z,100511.00
2018-07-19T09:02:05.175Z,100509.00
2018-07-19T09:07:08.248Z,100508.00
2018-07-19T09:12:11.286Z,100508.00
2018-07-19T09:17:14.349Z,100505.00
2018-07-19T09:22:17.532Z,100504.00
2018-07-19T09:27:21.200Z,100499.00
2018-07-19T09:32:24.471Z,100504.00
2018-07-19T09:37:27.923Z,100503.00
2018-07-19T09:42:30.872Z,100498.00
2018-07-19T09:47:33.956Z,100490.00
2018-07-19T09:52:36.924Z,100489.00
2018-07-19T09:57:39.935Z,100491.00
2018-07-19T10:02:42.923Z,100487.00
2018-07-19T10:07:45.978Z,100484.00
2018-07-19T10:12:49.069Z,100477.00
2018-07-19T10:17:52.047Z,100478.00
2018-07-19T10:22:55.006Z,100477.00
2018-07-19T10:27:57.991Z,100477.00
2018-07-19T10:33:01.036Z,100458.00
2018-07-19T10:38:04.042Z,100471.00
2018-07-19T10:43:07.493Z,100475.00
2018-07-19T10:48:10.515Z,100456.00
2018-07-19T10:53:13.469Z,100464.00
2018-07-19T10:58:16.445Z,100459.00
2018-07-19T11:03:19.506Z,100461.00
2018-07-19T11:08:22.487Z,100464.00
2018-07-19T11:13:25.545Z,100463.00
2018-07-19T11:18:28.470Z,100458.00
2018-07-19T11:23:32.322Z,100455.00
2018-07-19T11:28:35.325Z,100457.00
2018-07-19T11:33:38.323Z,100446.00
2018-07-19T11:38:41.253Z,100433.00
2018-07-19T11:43:44.199Z,100428.00
2018-07-19T11:48:47.172Z,100434.00
2018-07-19T11:53:50.191Z,100430.00
2018-07-19T11:58:53.117Z,100405.00
2018-07-19T12:03:56.093Z,100404.00
2018-07-19T12:08:59.102Z,100406.00
2018-07-19T12:14:02.132Z,100392.00
2018-07-19T12:19:05.782Z,100395.00
2018-07-19T12:24:08.895Z,100396.00
2018-07-19T12:29:11.883Z,100387.00
2018-07-19T12:34:14.871Z,100383.00
2018-07-19T12:39:17.869Z,100382.00
2018-07-19T12:44:21.064Z,100377.00
2018-07-19T12:49:24.956Z,100380.00
2018-07-19T12:54:27.910Z,100376.00
2018-07-19T12:59:31.105Z,100380.00
2018-07-19T13:04:34.159Z,100372.00
2018-07-19T13:09:37.160Z,100377.00
2018-07-19T13:14:41.464Z,100377.00
2018-07-19T13:19:44.680Z,100372.00
2018-07-19T13:24:48.223Z,100361.00
2018-07-19T13:29:51.433Z,100367.00
2018-07-19T13:34:54.419Z,100361.00
2018-07-19T13:39:57.462Z,100356.00
2018-07-19T13:45:00.440Z,100359.00
2018-07-19T13:50:03.848Z,100355.00
2018-07-19T13:55:06.895Z,100343.00
2018-07-19T14:00:09.973Z,100342.00
2018-07-19T14:05:12.971Z,100336.00
2018-07-19T14:10:15.922Z,100339.00
2018-07-19T14:15:18.889Z,100337.00
2018-07-19T14:20:21.847Z,100324.00
2018-07-19T14:25:24.776Z,100314.00
2018-07-19T14:30:27.719Z,100307.00
2018-07-19T14:35:30.673Z,100312.00
2018-07-19T14:40:33.671Z,100317.00
2018-07-19T14:45:36.655Z,100316.00
2018-07-19T14:50:39.552Z,100308.00
2018-07-19T14:55:42.475Z,100295.00
2018-07-19T15:00:45.421Z,100301.00
2018-07-19T15:05:48.371Z,100299.00
2018-07-19T15:10:51.319Z,100294.00
2018-07-19T15:15:54.317Z,100290.00
2018-07-19T15:20:57.300Z,100273.00
2018-07-19T15:26:00.311Z,100280.00
2018-07-19T15:31:03.323Z,100268.00
2018-07-19T15:36:06.356Z,100261.00
2018-07-19T15:41:09.347Z,100259.00
2018-07-19T15:46:12.299Z,100263.00
2018-07-19T15:51:15.338Z,100253.00
2018-07-19T15:56:18.316Z,100263.00
2018-07-19T16:01:21.336Z,100246.00
2018-07-19T16:06:24.336Z,100252.00
2018-07-19T16:11:27.307Z,100246.00
2018-07-19T16:16:30.308Z,100248.00
2018-07-19T16:21:33.283Z,100243.00
2018-07-19T16:26:36.224Z,100243.00
2018-07-19T16:31:39.170Z,100248.00
2018-07-19T16:36:42.124Z,100236.00
2018-07-19T16:41:45.136Z,100235.00
2018-07-19T16:46:48.109Z,100226.00
2018-07-19T16:51:51.183Z,100230.00
2018-07-19T16:56:54.249Z,100227.00
2018-07-19T17:01:57.280Z,100214.00
2018-07-19T17:07:00.336Z,100212.00
2018-07-19T17:12:03.395Z,100213.00
2018-07-19T17:17:06.615Z,100216.00
2018-07-19T17:22:09.665Z,100211.00
2018-07-19T17:27:12.742Z,100207.00
2018-07-19T17:32:16.015Z,100203.00
2018-07-19T17:37:19.033Z,100213.00
2018-07-19T17:42:22.145Z,100211.00
2018-07-19T17:47:25.239Z,100202.00
2018-07-19T17:52:28.285Z,100203.00
2018-07-19T17:57:31.345Z,100200.00
2018-07-19T18:02:34.396Z,100195.00
2018-07-19T18:07:37.419Z,100212.00
2018-07-19T18:12:40.456Z,100209.00
2018-07-19T18:17:43.493Z,100215.00
2018-07-19T18:22:46.738Z,100208.00
2018-07-19T18:27:49.810Z,100204.00
2018-07-19T18:32:52.881Z,100210.00
2018-07-19T18:37:55.980Z,100204.00
2018-07-19T18:42:59.009Z,100186.00
2018-07-19T18:48:02.135Z,100192.00
2018-07-19T18:53:05.173Z,100190.00
2018-07-19T18:58:08.415Z,100189.00
2018-07-19T19:03:11.667Z,100193.00
2018-07-19T19:08:14.690Z,100191.00
2018-07-19T19:13:18.001Z,100189.00
2018-07-19T19:18:21.441Z,100190.00
2018-07-19T19:23:24.531Z,100194.00
2018-07-19T19:28:27.638Z,100197.00
2018-07-19T19:33:30.585Z,100199.00
2018-07-19T19:38:33.626Z,100202.00
2018-07-19T19:43:36.651Z,100190.00
2018-07-19T19:48:39.716Z,100190.00
2018-07-19T19:53:43.004Z,100188.00
2018-07-19T19:58:46.003Z,100198.00
2018-07-19T20:03:48.908Z,100196.00
2018-07-19T20:08:51.916Z,100204.00
2018-07-19T20:13:55.009Z,100209.00
2018-07-19T20:18:58.270Z,100210.00
2018-07-19T20:24:01.582Z,100194.00
2018-07-19T20:29:04.576Z,100202.00
2018-07-19T20:34:07.901Z,100199.00
2018-07-19T20:39:10.980Z,100192.00
2018-07-19T20:44:14.125Z,100198.00
2018-07-19T20:49:17.277Z,100208.00
2018-07-19T20:54:20.512Z,100201.00
2018-07-19T20:59:23.508Z,100200.00
2018-07-19T21:04:26.544Z,100197.00
2018-07-19T21:09:29.820Z,100189.00
2018-07-19T21:14:32.831Z,100181.00
2018-07-19T21:19:35.828Z,100186.00
2018-07-19T21:24:39.240Z,100186.00
2018-07-19T21:29:42.304Z,100175.00
2018-07-19T21:34:45.320Z,100171.00
2018-07-19T21:39:48.295Z,100163.00
2018-07-19T21:44:51.381Z,100166.00
2018-07-19T21:49:54.373Z,100164.00
2018-07-19T21:54:57.394Z,100163.00
2018-07-19T22:00:00.450Z,100167.00
2018-07-19T22:05:03.567Z,100160.00
2018-07-19T22:10:06.603Z,100148.00
2018-07-19T22:15:10.069Z,100152.00
2018-07-19T22:20:13.094Z,100164.00
2018-07-19T22:25:16.083Z,100162.00
2018-07-19T22:30:19.061Z,100154.00
2018-07-19T22:35:22.037Z,100145.00
2018-07-19T22:40:25.063Z,100148.00
2018-07-19T22:45:28.072Z,100152.00
2018-07-19T22:50:31.240Z,100156.00
2018-07-19T22:55:34.243Z,100153.00
2018-07-19T23:00:37.231Z,100150.00
2018-07-19T23:05:40.205Z,100148.00
2018-07-19T23:10:43.184Z,100151.00
2018-07-19T23:15:46.567Z,100162.00
2018-07-19T23:20:49.628Z,100147.00
2018-07-19T23:25:52.835Z,100142.00
2018-07-19T23:30:55.870Z,100143.00
2018-07-19T23:36:33.110Z,100143.00
2018-07-19T23:41:49.016Z,100131.00
2018-07-19T23:46:56.823Z,100129.00
2018-07-19T23:51:59.827Z,100127.00
2018-07-19T23:57:02.791Z,100122.00
